Terminal Aerodrome Forecast
Issued by NWS Cleveland, OH

Home | Current Version | Previous Version | Graphics & Text | Print | Product List | Glossary Off
Versions: 1 2 3 4 5 6 7 8 9 10 11 12 13 14 15 16 17

000
FTUS41 KCLE 121343 AAA
TAFMFD
TAF AMD
KMFD 121343Z 1214/1312 31015G25KT P6SM -SHSN SCT016 BKN035
      TEMPO 1214/1216 5SM -SN BKN025
     FM121600 30015G25KT P6SM OVC015
     FM121700 30018G28KT P6SM OVC040=

USA.gov is the U.S. government's official web portal to all federal, state and local government web resources and services.